Quick Links (Output Below):   Max & Min Temps   /   Climate Reports   /   Zone Forecasts
River Forecasts   /   Forestry Forecasts   /   Aviation Forecasts   /   Radars   /   Features

Terminal Aerodrome Forecast (Arkadelphia)

Pick a Site:
Arkadelphia | El Dorado | Fayetteville | Fort Smith | Harrison | Highfill | Hot Springs | Jonesboro
Little Rock | Monticello | Mountain Home | Pine Bluff | Texarkana

KADF 090520Z 0906/1006 00000KT P6SM SCT050 BKN150
     FM091500 35008KT P6SM VCSH BKN040 OVC100
     FM100000 35006KT P6SM BKN050 OVC100=

 Latest METARs (Observations) 
How to Decode METARs
08Z KADF 090756Z AUTO 00000KT 9SM CLR 17/16 A3006 RMK AO2 T01660155
07Z KADF 090656Z AUTO 00000KT 9SM CLR 18/17 A3006 RMK AO2 T01770166
06Z KADF 090556Z AUTO 00000KT 9SM CLR 18/17 A3005 RMK AO2 58000
         T01770172 10244 20177 SLP189
05Z KADF 090456Z AUTO 00000KT 8SM CLR 18/17 A3006 RMK AO2 T01770166
         403330166 SLP193
04Z KADF 090356Z AUTO 00000KT 10SM CLR 19/18 A3007 RMK AO2 T01880177
03Z KADF 090256Z AUTO 00000KT 9SM CLR 19/18 A3006 RMK AO2 51018
         T01940177 SLP191
02Z KADF 090156Z AUTO 00000KT 10SM CLR 21/18 A3004 RMK AO2 T02050183
01Z KADF 090056Z AUTO 00000KT 10SM CLR 22/19 A3002 RMK AO2 T02160194
00Z KADF 082356Z AUTO 00000KT 10SM CLR 24/21 A3000 RMK AO2 55004
         T02440205 10333 20244 SLP173
***** Today's Observations (Above) *****

23Z KADF 082256Z AUTO 00000KT 10SM CLR 30/16 A3000 RMK AO2 T03000161
***** Yesterday's Observations (Above) *****

Back to Main Page

USA.gov is the U.S. government's official web portal to all federal, state and local government web resources and services.